createdAt,value
2023-05-21T00:00:45.696Z,101281.45
2023-05-21T00:03:33.994Z,101281.61
2023-05-21T00:06:03.697Z,101278.00
2023-05-21T00:08:31.665Z,101278.16
2023-05-21T00:10:59.484Z,101277.29
2023-05-21T00:13:27.163Z,101275.74
2023-05-21T00:15:54.904Z,101280.20
2023-05-21T00:18:22.603Z,101282.92
2023-05-21T00:20:50.313Z,101284.79
2023-05-21T00:23:18.672Z,101283.23
2023-05-21T00:25:46.907Z,101284.10
2023-05-21T00:28:14.686Z,101284.59
2023-05-21T00:30:43.144Z,101285.09
2023-05-21T00:33:13.932Z,101283.38
2023-05-21T00:35:41.837Z,101282.00
2023-05-21T00:38:10.193Z,101282.16
2023-05-21T00:40:41.192Z,101282.14
2023-05-21T00:43:10.787Z,101284.17
2023-05-21T00:45:38.657Z,101287.76
2023-05-21T00:48:06.974Z,101291.50
2023-05-21T00:50:36.217Z,101287.89
2023-05-21T00:53:04.922Z,101291.98
2023-05-21T00:55:33.156Z,101291.11
2023-05-21T00:58:01.185Z,101289.73
2023-05-21T01:00:28.998Z,101290.06
2023-05-21T01:02:56.842Z,101290.38
2023-05-21T01:05:24.647Z,101293.09
2023-05-21T01:07:52.720Z,101289.83
2023-05-21T01:10:20.605Z,101287.06
2023-05-21T01:12:49.582Z,101285.34
2023-05-21T01:15:17.400Z,101287.36
2023-05-21T01:17:48.854Z,101281.36
2023-05-21T01:20:19.141Z,101282.17
2023-05-21T01:22:56.603Z,101281.66
2023-05-21T01:25:25.043Z,101280.43
2023-05-21T01:27:52.822Z,101274.77
2023-05-21T01:30:23.872Z,101276.98
2023-05-21T01:33:04.029Z,101272.69
2023-05-21T01:35:41.860Z,101272.65
2023-05-21T01:38:22.583Z,101272.92
2023-05-21T01:40:58.853Z,101278.90
2023-05-21T01:43:29.557Z,101277.52
2023-05-21T01:45:59.045Z,101276.45
2023-05-21T01:48:29.156Z,101278.98
2023-05-21T01:51:02.021Z,101276.58
2023-05-21T01:53:29.857Z,101279.64
2023-05-21T01:55:59.429Z,101277.55
2023-05-21T01:58:27.167Z,101280.60
2023-05-21T02:00:55.667Z,101280.25
2023-05-21T02:03:27.286Z,101283.13
2023-05-21T02:05:55.767Z,101278.34
2023-05-21T02:08:23.697Z,101279.88
2023-05-21T02:10:51.662Z,101276.59
2023-05-21T02:13:25.196Z,101274.52
2023-05-21T02:15:55.004Z,101272.80
2023-05-21T02:18:23.215Z,101273.81
2023-05-21T02:20:50.967Z,101272.94
2023-05-21T02:23:18.721Z,101277.70
2023-05-21T02:25:46.575Z,101271.16
2023-05-21T02:28:14.332Z,101274.39
2023-05-21T02:30:42.065Z,101275.73
2023-05-21T02:33:09.923Z,101276.56
2023-05-21T02:35:37.925Z,101273.64
2023-05-21T02:38:05.990Z,101273.09
2023-05-21T02:40:33.704Z,101272.40
2023-05-21T02:43:01.466Z,101269.33
2023-05-21T02:45:30.595Z,101263.85
2023-05-21T02:47:58.442Z,101260.92
2023-05-21T02:50:26.137Z,101262.80
2023-05-21T02:52:53.833Z,101260.71
2023-05-21T02:55:22.762Z,101257.79
2023-05-21T02:57:50.550Z,101253.35
2023-05-21T03:00:18.235Z,101249.09
2023-05-21T03:02:46.151Z,101249.42
2023-05-21T03:05:14.258Z,101250.80
2023-05-21T03:07:42.486Z,101247.89
2023-05-21T03:10:10.707Z,101246.70
2023-05-21T03:12:38.447Z,101247.58
2023-05-21T03:15:06.574Z,101247.08
2023-05-21T03:17:34.286Z,101245.38
2023-05-21T03:20:02.256Z,101246.23
2023-05-21T03:22:29.971Z,101243.36
2023-05-21T03:24:58.320Z,101236.39
2023-05-21T03:27:26.193Z,101236.59
2023-05-21T03:29:55.948Z,101237.97
2023-05-21T03:32:24.070Z,101233.02
2023-05-21T03:34:51.953Z,101230.13
2023-05-21T03:37:19.710Z,101227.77
2023-05-21T03:39:47.426Z,101226.77
2023-05-21T03:42:15.113Z,101230.23
2023-05-21T03:44:42.868Z,101229.06
2023-05-21T03:47:10.568Z,101232.16
2023-05-21T03:49:38.343Z,101233.20
2023-05-21T03:52:06.272Z,101232.55
2023-05-21T03:54:33.969Z,101231.04
2023-05-21T03:57:01.674Z,101232.96
2023-05-21T03:59:29.433Z,101227.88
2023-05-21T04:01:57.160Z,101232.17
2023-05-21T04:04:24.927Z,101228.14
2023-05-21T04:06:54.318Z,101231.06
2023-05-21T04:09:22.246Z,101233.98
2023-05-21T04:11:49.927Z,101230.81
2023-05-21T04:14:17.633Z,101231.88
2023-05-21T04:16:45.418Z,101232.08
2023-05-21T04:19:13.196Z,101234.00
2023-05-21T04:21:41.030Z,101230.60
2023-05-21T04:24:08.710Z,101229.44
2023-05-21T04:26:36.375Z,101228.29
2023-05-21T04:29:05.068Z,101231.56
2023-05-21T04:31:33.064Z,101229.03
2023-05-21T04:34:00.788Z,101228.04
2023-05-21T04:36:29.112Z,101227.55
2023-05-21T04:38:56.850Z,101221.58
2023-05-21T04:41:24.564Z,101222.27
2023-05-21T04:43:55.427Z,101221.11
2023-05-21T04:46:26.053Z,101224.53
2023-05-21T04:48:55.370Z,101227.63
2023-05-21T04:51:24.949Z,101221.84
2023-05-21T04:53:53.968Z,101219.96
2023-05-21T04:56:27.834Z,101220.32
2023-05-21T04:58:55.859Z,101222.89
2023-05-21T05:01:23.862Z,101217.95
2023-05-21T05:03:51.835Z,101217.96
2023-05-21T05:06:19.564Z,101219.36
2023-05-21T05:08:47.290Z,101221.58
2023-05-21T05:11:15.017Z,101219.36
2023-05-21T05:13:42.976Z,101216.95
2023-05-21T05:16:11.372Z,101218.65
2023-05-21T05:18:39.123Z,101215.38
2023-05-21T05:21:06.875Z,101214.17
2023-05-21T05:23:34.709Z,101212.44
2023-05-21T05:26:02.808Z,101211.90
2023-05-21T05:28:30.579Z,101213.42
2023-05-21T05:30:58.285Z,101212.19
2023-05-21T05:33:26.041Z,101210.96
2023-05-21T05:35:54.173Z,101215.05
2023-05-21T05:38:22.227Z,101216.22
2023-05-21T05:40:50.067Z,101217.03
2023-05-21T05:43:17.943Z,101218.73
2023-05-21T05:45:45.692Z,101218.67
2023-05-21T05:48:13.407Z,101220.66
2023-05-21T05:50:41.167Z,101210.64
2023-05-21T05:53:08.920Z,101211.42
2023-05-21T05:55:36.812Z,101209.63
2023-05-21T05:58:04.964Z,101203.20
2023-05-21T06:00:38.347Z,101198.49
2023-05-21T06:03:06.279Z,101197.02
2023-05-21T06:05:34.089Z,101198.28
2023-05-21T06:08:01.856Z,101198.84
2023-05-21T06:10:29.605Z,101197.73
2023-05-21T06:12:57.326Z,101201.38
2023-05-21T06:15:25.055Z,101207.98
2023-05-21T06:17:52.748Z,101209.90
2023-05-21T06:20:20.559Z,101205.80
2023-05-21T06:22:48.367Z,101208.40
2023-05-21T06:25:16.406Z,101205.66
2023-05-21T06:27:44.116Z,101208.27
2023-05-21T06:30:12.010Z,101205.55
2023-05-21T06:32:39.807Z,101202.65
2023-05-21T06:35:08.988Z,101203.37
2023-05-21T06:37:36.729Z,101204.92
2023-05-21T06:40:05.483Z,101206.50
2023-05-21T06:42:33.212Z,101203.77
2023-05-21T06:45:01.979Z,101202.08
2023-05-21T06:47:29.767Z,101201.52
2023-05-21T06:49:57.533Z,101199.09
2023-05-21T06:52:26.832Z,101192.88
2023-05-21T06:54:54.551Z,101190.23
2023-05-21T06:57:22.251Z,101187.11
2023-05-21T06:59:49.976Z,101190.52
2023-05-21T07:02:17.778Z,101187.15
2023-05-21T07:04:45.601Z,101186.27
2023-05-21T07:07:13.312Z,101184.48
2023-05-21T07:09:41.318Z,101185.46
2023-05-21T07:12:09.011Z,101182.96
2023-05-21T07:14:36.708Z,101188.64
2023-05-21T07:17:04.832Z,101183.23
2023-05-21T07:19:32.767Z,101183.73
2023-05-21T07:22:00.606Z,101185.27
2023-05-21T07:24:28.280Z,101181.39
2023-05-21T07:26:56.001Z,101178.18
2023-05-21T07:29:23.827Z,101174.59
2023-05-21T07:31:51.486Z,101179.79
2023-05-21T07:34:19.304Z,101171.41
2023-05-21T07:36:47.027Z,101167.41
2023-05-21T07:39:14.711Z,101168.71
2023-05-21T07:41:42.392Z,101166.77
2023-05-21T07:44:10.538Z,101168.79
2023-05-21T07:46:38.300Z,101166.55
2023-05-21T07:49:06.099Z,101171.35
2023-05-21T07:51:33.901Z,101166.35
2023-05-21T07:54:01.602Z,101170.86
2023-05-21T07:56:29.788Z,101171.66
2023-05-21T07:58:57.474Z,101172.49
2023-05-21T08:01:25.338Z,101169.63
2023-05-21T08:03:53.230Z,101165.73
2023-05-21T08:06:22.365Z,101167.75
2023-05-21T08:08:50.472Z,101171.63
2023-05-21T08:11:18.206Z,101169.84
2023-05-21T08:13:46.159Z,101167.35
2023-05-21T08:16:13.933Z,101167.42
2023-05-21T08:18:41.726Z,101163.71
2023-05-21T08:21:09.717Z,101164.75
2023-05-21T08:23:38.403Z,101166.02
2023-05-21T08:26:07.156Z,101165.89
2023-05-21T08:28:39.000Z,101161.80
2023-05-21T08:31:06.724Z,101160.34
2023-05-21T08:33:38.554Z,101157.13
2023-05-21T08:36:07.336Z,101156.96
2023-05-21T08:38:36.589Z,101157.61
2023-05-21T08:41:07.945Z,101152.16
2023-05-21T08:43:37.212Z,101152.94
2023-05-21T08:46:06.514Z,101154.32
2023-05-21T08:48:34.974Z,101154.08
2023-05-21T08:51:02.842Z,101152.54
2023-05-21T08:53:33.220Z,101154.80
2023-05-21T08:56:01.709Z,101156.95
2023-05-21T08:58:32.349Z,101156.25
2023-05-21T09:01:00.504Z,101154.27
2023-05-21T09:03:29.438Z,101157.14
2023-05-21T09:05:57.863Z,101155.51
2023-05-21T09:08:35.304Z,101153.34
2023-05-21T09:11:03.680Z,101150.84
2023-05-21T09:13:37.428Z,101153.13
2023-05-21T09:16:07.427Z,101146.73
2023-05-21T09:18:35.098Z,101147.26
2023-05-21T09:21:28.881Z,101147.36
2023-05-21T09:23:58.599Z,101145.79
2023-05-21T09:26:27.005Z,101142.85
2023-05-21T09:29:00.186Z,101143.08
2023-05-21T09:31:29.813Z,101142.45
2023-05-21T09:33:57.631Z,101146.27
2023-05-21T09:36:25.752Z,101145.38
2023-05-21T09:38:53.460Z,101146.77
2023-05-21T09:41:32.114Z,101136.75
2023-05-21T09:44:01.648Z,101138.25
2023-05-21T09:46:39.126Z,101133.20
2023-05-21T09:49:06.979Z,101138.34
2023-05-21T09:51:39.231Z,101136.36
2023-05-21T09:54:06.916Z,101134.11
2023-05-21T09:56:34.655Z,101131.58
2023-05-21T09:59:06.489Z,101132.86
2023-05-21T10:01:34.910Z,101130.31
2023-05-21T10:04:07.775Z,101131.27
2023-05-21T10:06:42.162Z,101129.45
2023-05-21T10:09:11.601Z,101122.02
2023-05-21T10:11:41.079Z,101129.30
2023-05-21T10:14:17.259Z,101130.71
2023-05-21T10:16:46.537Z,101129.56
2023-05-21T10:19:16.192Z,101123.81
2023-05-21T10:21:45.936Z,101122.56
2023-05-21T10:24:14.044Z,101115.88
2023-05-21T10:26:42.764Z,101112.70
2023-05-21T10:29:11.227Z,101110.45
2023-05-21T10:31:39.126Z,101111.22
2023-05-21T10:34:07.923Z,101109.73
2023-05-21T10:36:37.984Z,101109.38
2023-05-21T10:39:07.940Z,101105.13
2023-05-21T10:41:47.116Z,101107.51
2023-05-21T10:44:27.236Z,101104.83
2023-05-21T10:47:10.423Z,101103.89
2023-05-21T10:49:58.296Z,101101.60
2023-05-21T10:52:52.442Z,101099.58
2023-05-21T10:55:44.395Z,101100.61
2023-05-21T10:58:46.749Z,101100.80
2023-05-21T11:01:16.240Z,101095.29
2023-05-21T11:03:44.354Z,101095.73
2023-05-21T11:06:24.020Z,101095.30
2023-05-21T11:08:55.284Z,101087.91
2023-05-21T11:11:43.004Z,101082.60
2023-05-21T11:14:27.961Z,101085.88
2023-05-21T11:16:57.087Z,101084.48
2023-05-21T11:19:38.433Z,101084.95
2023-05-21T11:22:30.931Z,101080.70
2023-05-21T11:25:02.247Z,101077.62
2023-05-21T11:27:35.995Z,101071.48
2023-05-21T11:30:08.747Z,101070.04
2023-05-21T11:32:47.648Z,101073.54
2023-05-21T11:35:15.513Z,101073.35
2023-05-21T11:37:46.130Z,101074.11
2023-05-21T11:40:26.003Z,101072.30
2023-05-21T11:42:56.003Z,101072.77
2023-05-21T11:45:31.140Z,101074.60
2023-05-21T11:48:00.224Z,101070.14
2023-05-21T11:50:30.747Z,101073.33
2023-05-21T11:52:59.901Z,101071.83
2023-05-21T11:55:27.780Z,101066.67
2023-05-21T11:57:55.870Z,101070.08
2023-05-21T12:00:23.692Z,101069.73
2023-05-21T12:02:53.046Z,101071.92
2023-05-21T12:05:21.561Z,101066.78
2023-05-21T12:07:50.506Z,101067.48
2023-05-21T12:10:21.729Z,101061.60
2023-05-21T12:12:54.640Z,101056.02
2023-05-21T12:15:24.584Z,101059.83
2023-05-21T12:18:02.282Z,101067.26
2023-05-21T12:20:30.241Z,101064.70
2023-05-21T12:22:59.076Z,101064.48
2023-05-21T12:25:27.735Z,101062.37
2023-05-21T12:27:58.228Z,101059.29
2023-05-21T12:30:26.993Z,101058.59
2023-05-21T12:32:58.245Z,101058.72
2023-05-21T12:35:26.238Z,101058.58
2023-05-21T12:37:54.245Z,101056.48
2023-05-21T12:40:22.522Z,101055.52
2023-05-21T12:42:51.862Z,101055.41
2023-05-21T12:45:21.196Z,101050.92
2023-05-21T12:47:56.461Z,101037.73
2023-05-21T12:50:24.590Z,101036.55
2023-05-21T12:52:58.188Z,101036.52
2023-05-21T12:55:26.384Z,101038.64
2023-05-21T12:58:04.531Z,101035.67
2023-05-21T13:00:33.078Z,101037.59
2023-05-21T13:03:01.968Z,101031.77
2023-05-21T13:05:31.137Z,101035.08
2023-05-21T13:07:59.103Z,101033.11
2023-05-21T13:10:26.789Z,101033.27
2023-05-21T13:12:54.643Z,101032.67
2023-05-21T13:15:22.683Z,101033.75
2023-05-21T13:17:53.074Z,101028.30
2023-05-21T13:20:23.945Z,101028.49
2023-05-21T13:22:52.279Z,101021.68
2023-05-21T13:25:28.048Z,101016.88
2023-05-21T13:27:56.257Z,101015.60
2023-05-21T13:30:24.130Z,101018.15
2023-05-21T13:32:52.439Z,101019.39
2023-05-21T13:35:20.593Z,101021.02
2023-05-21T13:37:50.412Z,101020.77
2023-05-21T13:40:18.533Z,101018.48
2023-05-21T13:42:48.521Z,101014.17
2023-05-21T13:45:20.331Z,101010.69
2023-05-21T13:47:48.616Z,101011.75
2023-05-21T13:50:16.942Z,101016.37
2023-05-21T13:52:46.211Z,101016.46
2023-05-21T13:55:16.143Z,101016.27
2023-05-21T13:57:45.032Z,101011.23
2023-05-21T14:00:15.804Z,101012.09
2023-05-21T14:02:44.692Z,101010.91
2023-05-21T14:05:13.621Z,101009.55
2023-05-21T14:07:42.279Z,101010.38
2023-05-21T14:10:11.127Z,101006.29
2023-05-21T14:12:39.061Z,101003.22
2023-05-21T14:15:07.806Z,101005.05
2023-05-21T14:17:35.812Z,101006.83
2023-05-21T14:20:03.940Z,101008.45
2023-05-21T14:22:31.592Z,101008.77
2023-05-21T14:24:59.336Z,101005.92
2023-05-21T14:27:27.759Z,101008.60
2023-05-21T14:29:55.527Z,101002.89
2023-05-21T14:32:23.458Z,100998.06
2023-05-21T14:34:51.361Z,100996.55
2023-05-21T14:37:19.179Z,100997.22
2023-05-21T14:39:47.223Z,100996.73
2023-05-21T14:42:15.214Z,100992.19
2023-05-21T14:44:42.915Z,100990.88
2023-05-21T14:47:10.990Z,100984.42
2023-05-21T14:49:38.783Z,100986.48
2023-05-21T14:52:06.955Z,100978.66
2023-05-21T14:54:34.701Z,100981.29
2023-05-21T14:57:02.450Z,100987.52
2023-05-21T14:59:30.150Z,100989.40
2023-05-21T15:01:58.448Z,100985.34
2023-05-21T15:04:26.676Z,100986.06
2023-05-21T15:06:54.499Z,100985.98
2023-05-21T15:09:22.347Z,100981.83
2023-05-21T15:11:54.060Z,100977.58
2023-05-21T15:14:22.417Z,100972.20
2023-05-21T15:16:50.199Z,100972.38
2023-05-21T15:19:18.126Z,100969.80
2023-05-21T15:21:46.184Z,100965.60
2023-05-21T15:24:13.905Z,100967.25
2023-05-21T15:26:41.562Z,100971.25
2023-05-21T15:29:09.318Z,100970.35
2023-05-21T15:31:37.320Z,100970.63
2023-05-21T15:34:05.111Z,100972.99
2023-05-21T15:36:32.780Z,100974.45
2023-05-21T15:39:03.707Z,100970.95
2023-05-21T15:41:39.007Z,100972.25
2023-05-21T15:44:06.745Z,100971.05
2023-05-21T15:46:34.581Z,100969.32
2023-05-21T15:49:02.390Z,100968.55
2023-05-21T15:51:30.146Z,100965.17
2023-05-21T15:53:57.966Z,100965.09
2023-05-21T15:56:26.725Z,100962.71
2023-05-21T15:58:54.454Z,100962.77
2023-05-21T16:01:22.492Z,100965.60
2023-05-21T16:03:50.373Z,100964.60
2023-05-21T16:06:18.472Z,100967.19
2023-05-21T16:08:46.693Z,100969.59
2023-05-21T16:11:14.534Z,100966.52
2023-05-21T16:13:42.418Z,100968.52
2023-05-21T16:16:10.255Z,100967.11
2023-05-21T16:18:38.870Z,100963.71
2023-05-21T16:21:06.796Z,100960.83
2023-05-21T16:23:34.528Z,100963.48
2023-05-21T16:26:02.383Z,100959.35
2023-05-21T16:28:30.415Z,100959.23
2023-05-21T16:30:58.474Z,100958.64
2023-05-21T16:33:26.600Z,100960.81
2023-05-21T16:35:54.515Z,100960.46
2023-05-21T16:38:22.905Z,100962.76
2023-05-21T16:40:50.801Z,100962.33
2023-05-21T16:43:18.554Z,100959.16
2023-05-21T16:45:48.908Z,100957.07
2023-05-21T16:48:17.241Z,100958.86
2023-05-21T16:50:46.959Z,100961.55
2023-05-21T16:53:14.885Z,100965.98
2023-05-21T16:55:43.390Z,100967.08
2023-05-21T16:58:13.520Z,100966.50
2023-05-21T17:00:41.366Z,100964.00
2023-05-21T17:03:09.235Z,100962.90
2023-05-21T17:05:37.410Z,100963.23
2023-05-21T17:08:05.976Z,100965.95
2023-05-21T17:10:34.083Z,100968.70
2023-05-21T17:13:09.787Z,100970.30
2023-05-21T17:15:45.988Z,100970.89
2023-05-21T17:18:14.652Z,100973.66
2023-05-21T17:20:43.773Z,100972.99
2023-05-21T17:23:12.103Z,100975.56
2023-05-21T17:25:41.093Z,100977.48
2023-05-21T17:28:09.118Z,100978.73
2023-05-21T17:30:37.039Z,100974.33
2023-05-21T17:33:06.635Z,100969.60
2023-05-21T17:35:34.912Z,100971.31
2023-05-21T17:38:02.722Z,100969.13
2023-05-21T17:40:30.643Z,100972.19
2023-05-21T17:42:58.404Z,100971.00
2023-05-21T17:45:26.273Z,100967.36
2023-05-21T17:47:54.146Z,100969.39
2023-05-21T17:50:22.129Z,100968.06
2023-05-21T17:52:49.866Z,100962.23
2023-05-21T17:55:17.687Z,100964.85
2023-05-21T17:57:46.324Z,100965.07
2023-05-21T18:00:14.396Z,100962.03
2023-05-21T18:02:42.473Z,100961.40
2023-05-21T18:05:10.848Z,100962.93
2023-05-21T18:07:40.580Z,100964.33
2023-05-21T18:10:08.867Z,100966.02
2023-05-21T18:12:36.824Z,100967.91
2023-05-21T18:15:05.366Z,100965.42
2023-05-21T18:17:33.270Z,100968.67
2023-05-21T18:20:01.063Z,100967.23
2023-05-21T18:22:28.772Z,100971.31
2023-05-21T18:24:56.491Z,100969.60
2023-05-21T18:27:24.210Z,100967.66
2023-05-21T18:29:52.386Z,100977.46
2023-05-21T18:32:20.301Z,100975.03
2023-05-21T18:34:48.530Z,100977.77
2023-05-21T18:37:17.136Z,100974.48
2023-05-21T18:39:44.947Z,100973.92
2023-05-21T18:42:13.987Z,100975.98
2023-05-21T18:44:42.243Z,100974.39
2023-05-21T18:47:10.073Z,100971.27
2023-05-21T18:49:38.255Z,100979.48
2023-05-21T18:52:06.590Z,100975.13
2023-05-21T18:54:34.392Z,100981.23
2023-05-21T18:57:02.123Z,100978.05
2023-05-21T18:59:31.305Z,100980.38
2023-05-21T19:01:59.205Z,100981.66
2023-05-21T19:04:27.556Z,100980.25
2023-05-21T19:06:55.902Z,100988.09
2023-05-21T19:09:23.933Z,100990.20
2023-05-21T19:11:51.910Z,100990.27
2023-05-21T19:14:21.039Z,100991.70
2023-05-21T19:16:48.738Z,100991.37
2023-05-21T19:19:16.631Z,100993.77
2023-05-21T19:21:44.591Z,100994.63
2023-05-21T19:24:12.418Z,100996.73
2023-05-21T19:26:40.304Z,100994.48
2023-05-21T19:29:09.659Z,101002.53
2023-05-21T19:31:39.344Z,101002.33
2023-05-21T19:34:10.858Z,101001.40
2023-05-21T19:36:52.389Z,101000.13
2023-05-21T19:39:21.421Z,100998.02
2023-05-21T19:41:49.360Z,100996.89
2023-05-21T19:44:17.455Z,100998.86
2023-05-21T19:46:45.307Z,100999.14
2023-05-21T19:49:14.648Z,101001.48
2023-05-21T19:51:42.572Z,101000.58
2023-05-21T19:54:10.789Z,100999.29
2023-05-21T19:56:38.676Z,100993.34
2023-05-21T19:59:06.457Z,100987.06
2023-05-21T20:01:39.444Z,100988.98
2023-05-21T20:04:07.683Z,100983.71
2023-05-21T20:06:35.859Z,100980.52
2023-05-21T20:09:07.534Z,100982.65
2023-05-21T20:11:36.283Z,100977.59
2023-05-21T20:14:04.538Z,100976.48
2023-05-21T20:16:33.603Z,100975.49
2023-05-21T20:19:02.461Z,100974.50
2023-05-21T20:21:31.710Z,100977.46
2023-05-21T20:23:59.678Z,100975.14
2023-05-21T20:26:27.624Z,100975.55
2023-05-21T20:28:55.653Z,100977.98
2023-05-21T20:31:25.325Z,100978.04
2023-05-21T20:33:53.955Z,100980.83
2023-05-21T20:36:21.891Z,100982.08
2023-05-21T20:38:49.618Z,100981.77
2023-05-21T20:41:17.396Z,100979.73
2023-05-21T20:43:45.876Z,100977.73
2023-05-21T20:46:13.990Z,100981.90
2023-05-21T20:48:42.524Z,100985.38
2023-05-21T20:51:10.668Z,100986.09
2023-05-21T20:53:38.404Z,100987.15
2023-05-21T20:56:08.339Z,100986.51
2023-05-21T20:58:36.279Z,100983.48
2023-05-21T21:01:04.149Z,100979.90
2023-05-21T21:03:35.010Z,100982.15
2023-05-21T21:06:04.452Z,100979.95
2023-05-21T21:08:34.858Z,100976.03
2023-05-21T21:11:02.832Z,100976.56
2023-05-21T21:13:30.831Z,100977.77
2023-05-21T21:15:58.692Z,100976.78
2023-05-21T21:18:26.442Z,100978.52
2023-05-21T21:20:54.661Z,100972.55
2023-05-21T21:23:29.261Z,100969.31
2023-05-21T21:25:57.310Z,100968.63
2023-05-21T21:28:25.050Z,100966.77
2023-05-21T21:30:53.082Z,100967.65
2023-05-21T21:33:21.253Z,100967.32
2023-05-21T21:35:48.984Z,100965.27
2023-05-21T21:38:16.947Z,100965.11
2023-05-21T21:40:45.395Z,100962.05
2023-05-21T21:43:13.240Z,100960.34
2023-05-21T21:45:41.099Z,100960.69
2023-05-21T21:48:09.026Z,100962.73
2023-05-21T21:50:36.887Z,100959.83
2023-05-21T21:53:05.971Z,100958.98
2023-05-21T21:55:34.200Z,100958.48
2023-05-21T21:58:02.113Z,100955.22
2023-05-21T22:00:30.052Z,100950.27
2023-05-21T22:02:57.877Z,100952.33
2023-05-21T22:05:25.675Z,100956.79
2023-05-21T22:07:53.368Z,100961.40
2023-05-21T22:10:21.377Z,100964.98
2023-05-21T22:12:49.085Z,100964.14
2023-05-21T22:15:27.793Z,100963.11
2023-05-21T22:17:58.724Z,100964.31
2023-05-21T22:20:29.407Z,100965.16
2023-05-21T22:22:58.059Z,100966.69
2023-05-21T22:25:25.991Z,100963.63
2023-05-21T22:27:53.718Z,100965.48
2023-05-21T22:30:21.585Z,100963.09
2023-05-21T22:32:49.540Z,100966.17
2023-05-21T22:35:17.383Z,100964.98
2023-05-21T22:37:48.396Z,100963.43
2023-05-21T22:40:16.093Z,100965.13
2023-05-21T22:42:45.358Z,100965.80
2023-05-21T22:45:16.118Z,100966.14
2023-05-21T22:47:44.248Z,100968.02
2023-05-21T22:50:12.972Z,100969.88
2023-05-21T22:52:40.958Z,100968.85
2023-05-21T22:55:11.399Z,100968.32
2023-05-21T22:57:39.425Z,100967.96
2023-05-21T23:00:10.043Z,100964.54
2023-05-21T23:02:38.069Z,100961.28
2023-05-21T23:05:06.100Z,100961.09
2023-05-21T23:07:33.826Z,100960.23
2023-05-21T23:10:01.653Z,100959.04
2023-05-21T23:12:29.713Z,100958.17
2023-05-21T23:14:57.481Z,100955.94
2023-05-21T23:17:25.220Z,100957.14
2023-05-21T23:19:53.578Z,100956.26
2023-05-21T23:22:22.082Z,100956.41
2023-05-21T23:24:51.124Z,100954.86
2023-05-21T23:27:18.950Z,100958.27
2023-05-21T23:29:46.611Z,100958.90
2023-05-21T23:32:14.352Z,100958.04
2023-05-21T23:34:42.311Z,100956.30
2023-05-21T23:37:10.991Z,100959.69
2023-05-21T23:39:38.778Z,100958.96
2023-05-21T23:42:06.863Z,100962.19
2023-05-21T23:44:37.731Z,100959.45
2023-05-21T23:47:05.513Z,100958.58
2023-05-21T23:49:33.252Z,100955.31
2023-05-21T23:52:01.767Z,100953.61
2023-05-21T23:54:29.510Z,100954.26
2023-05-21T23:56:57.327Z,100956.28
2023-05-21T23:59:25.307Z,100956.42
